createdAt,value
2019-04-03T00:02:59.269Z,13.51
2019-04-03T00:07:03.867Z,13.49
2019-04-03T00:11:10.959Z,13.48
2019-04-03T00:15:15.613Z,13.43
2019-04-03T00:19:19.829Z,13.42
2019-04-03T00:23:24.106Z,13.37
2019-04-03T00:27:28.318Z,13.35
2019-04-03T00:31:32.506Z,13.33
2019-04-03T00:35:37.081Z,13.30
2019-04-03T00:39:41.259Z,13.24
2019-04-03T00:43:45.482Z,13.21
2019-04-03T00:47:49.690Z,13.16
2019-04-03T00:51:53.872Z,13.13
2019-04-03T00:55:58.138Z,13.09
2019-04-03T01:00:02.391Z,13.02
2019-04-03T01:04:06.589Z,12.95
2019-04-03T01:08:10.816Z,12.89
2019-04-03T01:12:15.025Z,12.89
2019-04-03T01:16:19.310Z,12.79
2019-04-03T01:20:23.490Z,12.77
2019-04-03T01:24:27.721Z,12.77
2019-04-03T01:28:31.918Z,12.75
2019-04-03T01:32:36.121Z,12.71
2019-04-03T01:36:40.335Z,12.67
2019-04-03T01:40:44.551Z,12.65
2019-04-03T01:44:48.776Z,12.61
2019-04-03T01:48:52.966Z,12.54
2019-04-03T01:52:57.193Z,12.42
2019-04-03T01:57:01.666Z,12.23
2019-04-03T02:01:06.303Z,12.09
2019-04-03T02:05:12.733Z,11.89
2019-04-03T02:09:17.597Z,11.70
2019-04-03T02:13:22.035Z,11.60
2019-04-03T02:17:26.669Z,11.47
2019-04-03T02:21:31.387Z,11.43
2019-04-03T02:25:35.922Z,11.43
2019-04-03T02:29:40.420Z,11.42
2019-04-03T02:33:44.689Z,11.43
2019-04-03T02:37:50.524Z,11.43
2019-04-03T02:41:54.814Z,11.45
2019-04-03T02:45:59.229Z,11.46
2019-04-03T02:50:03.712Z,11.48
2019-04-03T02:54:17.450Z,11.50
2019-04-03T02:58:22.849Z,11.42
2019-04-03T03:02:27.715Z,11.43
2019-04-03T03:06:33.038Z,11.43
2019-04-03T03:10:38.433Z,11.43
2019-04-03T03:14:42.720Z,11.44
2019-04-03T03:18:47.530Z,11.47
2019-04-03T03:22:54.192Z,11.49
2019-04-03T03:26:59.243Z,11.49
2019-04-03T03:31:05.936Z,11.50
2019-04-03T03:35:15.029Z,11.46
2019-04-03T03:39:16.160Z,11.36
2019-04-03T03:43:21.398Z,11.30
2019-04-03T03:47:25.995Z,11.21
2019-04-03T03:51:32.968Z,11.13
2019-04-03T03:55:38.193Z,11.11
2019-04-03T03:59:43.871Z,11.08
2019-04-03T04:03:48.085Z,11.07
2019-04-03T04:07:52.360Z,11.06
2019-04-03T04:11:57.802Z,11.07
2019-04-03T04:16:04.619Z,11.06
2019-04-03T04:20:09.530Z,11.01
2019-04-03T04:24:20.692Z,10.96
2019-04-03T04:28:25.105Z,10.95
2019-04-03T04:32:29.431Z,10.88
2019-04-03T04:36:33.678Z,10.84
2019-04-03T04:40:38.065Z,10.81
2019-04-03T04:44:42.529Z,10.73
2019-04-03T04:48:47.114Z,10.66
2019-04-03T04:52:51.520Z,10.64
2019-04-03T04:56:55.751Z,10.63
2019-04-03T05:00:59.989Z,10.58
2019-04-03T05:05:07.736Z,10.56
2019-04-03T05:09:11.115Z,10.55
2019-04-03T05:13:15.951Z,10.60
2019-04-03T05:17:20.892Z,10.64
2019-04-03T05:21:25.992Z,10.66
2019-04-03T05:25:30.477Z,10.70
2019-04-03T05:29:35.357Z,10.71
2019-04-03T05:33:42.185Z,10.72
2019-04-03T05:37:45.799Z,10.76
2019-04-03T05:41:50.132Z,10.81
2019-04-03T05:45:55.432Z,10.85
2019-04-03T05:50:00.104Z,10.89
2019-04-03T05:54:05.960Z,10.92
2019-04-03T05:58:10.649Z,10.91
2019-04-03T06:02:19.781Z,10.96
2019-04-03T06:06:20.999Z,11.02
2019-04-03T06:10:27.672Z,11.08
2019-04-03T06:14:31.194Z,11.16
2019-04-03T06:18:35.514Z,11.21
2019-04-03T06:22:39.927Z,11.27
2019-04-03T06:26:45.081Z,11.36
2019-04-03T06:30:49.451Z,11.41
2019-04-03T06:34:53.580Z,11.46
2019-04-03T06:38:57.872Z,11.53
2019-04-03T06:43:02.102Z,11.62
2019-04-03T06:47:06.330Z,11.67
2019-04-03T06:51:10.554Z,11.71
2019-04-03T06:55:14.931Z,11.81
2019-04-03T06:59:19.923Z,11.91
2019-04-03T07:03:24.139Z,12.01
2019-04-03T07:07:33.963Z,12.16
2019-04-03T07:11:34.335Z,12.22
2019-04-03T07:15:38.535Z,12.29
2019-04-03T07:19:42.764Z,12.30
2019-04-03T07:23:46.986Z,12.40
2019-04-03T07:27:51.800Z,12.52
2019-04-03T07:31:56.039Z,12.65
2019-04-03T07:36:00.566Z,12.66
2019-04-03T07:40:06.221Z,12.77
2019-04-03T07:44:10.415Z,12.83
2019-04-03T07:48:14.637Z,12.83
2019-04-03T07:52:18.877Z,12.87
2019-04-03T07:56:25.598Z,12.98
2019-04-03T08:00:29.184Z,13.00
2019-04-03T08:04:33.371Z,13.04
2019-04-03T08:08:38.164Z,13.09
2019-04-03T08:12:42.455Z,13.09
2019-04-03T08:16:48.177Z,13.12
2019-04-03T08:20:52.684Z,13.16
2019-04-03T08:24:56.898Z,13.21
2019-04-03T08:29:02.252Z,13.30
2019-04-03T08:33:15.896Z,13.43
2019-04-03T08:37:12.728Z,13.57
2019-04-03T08:41:16.917Z,13.65
2019-04-03T08:45:22.174Z,13.71
2019-04-03T08:49:26.714Z,13.82
2019-04-03T08:53:30.987Z,13.87
2019-04-03T08:57:35.328Z,13.90
2019-04-03T09:01:39.522Z,13.99
2019-04-03T09:05:43.735Z,14.07
2019-04-03T09:09:47.965Z,14.09
2019-04-03T09:13:52.711Z,14.13
2019-04-03T09:17:58.413Z,14.16
2019-04-03T09:22:02.995Z,14.27
2019-04-03T09:26:07.709Z,14.39
2019-04-03T09:30:15.481Z,14.46
2019-04-03T09:34:20.384Z,14.55
2019-04-03T09:38:24.699Z,14.73
2019-04-03T09:42:29.244Z,14.95
2019-04-03T09:46:33.451Z,15.08
2019-04-03T09:50:37.869Z,15.18
2019-04-03T09:54:42.196Z,15.30
2019-04-03T09:58:46.425Z,15.36
2019-04-03T10:02:51.507Z,15.43
2019-04-03T10:06:56.261Z,15.50
2019-04-03T10:11:00.557Z,15.51
2019-04-03T10:15:06.006Z,15.64
2019-04-03T10:19:10.961Z,15.68
2019-04-03T10:23:16.206Z,15.70
2019-04-03T10:27:20.441Z,15.77
2019-04-03T10:31:24.906Z,15.91
2019-04-03T10:35:29.171Z,16.06
2019-04-03T10:39:33.413Z,16.18
2019-04-03T10:43:37.745Z,16.26
2019-04-03T10:47:44.161Z,16.33
2019-04-03T10:51:48.328Z,16.45
2019-04-03T10:55:52.616Z,16.57
2019-04-03T10:59:56.815Z,16.76
2019-04-03T11:04:01.550Z,16.73
2019-04-03T11:08:05.792Z,16.79
2019-04-03T11:12:10.679Z,16.78
2019-04-03T11:16:15.772Z,16.83
2019-04-03T11:20:20.623Z,16.90
2019-04-03T11:24:24.886Z,17.00
2019-04-03T11:28:29.582Z,17.01
2019-04-03T11:32:34.056Z,17.10
2019-04-03T11:36:38.255Z,17.18
2019-04-03T11:40:42.411Z,17.28
2019-04-03T11:44:46.935Z,17.33
2019-04-03T11:48:51.259Z,17.39
2019-04-03T11:52:55.531Z,17.46
2019-04-03T11:56:59.902Z,17.59
2019-04-03T12:01:04.439Z,17.75
2019-04-03T12:05:08.891Z,17.75
2019-04-03T12:09:13.138Z,17.75
2019-04-03T12:13:19.457Z,17.73
2019-04-03T12:17:23.358Z,17.73
2019-04-03T12:21:28.002Z,17.75
2019-04-03T12:25:34.182Z,17.70
2019-04-03T12:29:38.655Z,17.73
2019-04-03T12:33:53.145Z,17.75
2019-04-03T12:37:50.120Z,17.80
2019-04-03T12:41:55.626Z,17.87
2019-04-03T12:46:02.400Z,17.94
2019-04-03T12:50:07.745Z,17.98
2019-04-03T12:54:13.390Z,17.95
2019-04-03T12:58:17.945Z,18.01
2019-04-03T13:02:22.446Z,18.00
2019-04-03T13:06:27.022Z,18.03
2019-04-03T13:10:40.996Z,18.01
2019-04-03T13:14:37.302Z,18.05
2019-04-03T13:18:42.023Z,18.06
2019-04-03T13:22:46.324Z,18.04
2019-04-03T13:26:50.565Z,18.10
2019-04-03T13:30:54.770Z,18.09
2019-04-03T13:34:59.476Z,18.11
2019-04-03T13:39:06.466Z,18.12
2019-04-03T13:43:11.063Z,18.16
2019-04-03T13:47:15.268Z,18.22
2019-04-03T13:51:19.953Z,18.25
2019-04-03T13:55:24.398Z,18.31
2019-04-03T13:59:28.656Z,18.24
2019-04-03T14:03:33.078Z,18.23
2019-04-03T14:07:40.522Z,18.19
2019-04-03T14:11:43.430Z,18.14
2019-04-03T14:15:48.152Z,18.13
2019-04-03T14:19:52.918Z,18.10
2019-04-03T14:23:57.286Z,18.06
2019-04-03T14:28:03.201Z,18.08
2019-04-03T14:32:07.603Z,18.08
2019-04-03T14:36:11.823Z,18.06
2019-04-03T14:40:16.068Z,18.08
2019-04-03T14:44:20.561Z,18.10
2019-04-03T14:48:26.310Z,18.08
2019-04-03T14:52:30.856Z,18.10
2019-04-03T14:56:35.184Z,18.04
2019-04-03T15:00:39.434Z,17.97
2019-04-03T15:04:43.622Z,17.94
2019-04-03T15:08:48.034Z,17.91
2019-04-03T15:12:52.449Z,17.88
2019-04-03T15:16:56.647Z,17.88
2019-04-03T15:21:01.041Z,17.92
2019-04-03T15:25:06.437Z,17.95
2019-04-03T15:29:10.738Z,17.95
2019-04-03T15:33:15.333Z,18.04
2019-04-03T15:37:19.790Z,18.04
2019-04-03T15:41:24.082Z,18.10
2019-04-03T15:45:28.780Z,18.11
2019-04-03T15:49:33.054Z,18.15
2019-04-03T15:53:37.280Z,18.20
2019-04-03T15:57:41.547Z,18.24
2019-04-03T16:01:45.976Z,18.30
2019-04-03T16:05:50.187Z,18.33
2019-04-03T16:09:54.772Z,18.37
2019-04-03T16:13:59.171Z,18.39
2019-04-03T16:18:12.733Z,18.38
2019-04-03T16:22:17.441Z,18.39
2019-04-03T16:26:24.300Z,18.39
2019-04-03T16:30:27.589Z,18.36
2019-04-03T16:34:32.413Z,18.29
2019-04-03T16:38:37.100Z,18.29
2019-04-03T16:42:41.658Z,18.33
2019-04-03T16:46:46.271Z,18.35
2019-04-03T16:50:50.590Z,18.41
2019-04-03T16:54:54.846Z,18.48
2019-04-03T16:59:00.642Z,18.55
2019-04-03T17:03:05.561Z,18.61
2019-04-03T17:07:10.242Z,18.64
2019-04-03T17:11:14.610Z,18.67
2019-04-03T17:15:19.349Z,18.68
2019-04-03T17:19:23.974Z,18.66
2019-04-03T17:23:28.208Z,18.62
2019-04-03T17:27:32.406Z,18.59
2019-04-03T17:31:36.670Z,18.53
2019-04-03T17:35:41.310Z,18.49
2019-04-03T17:39:45.612Z,18.43
2019-04-03T17:43:49.922Z,18.38
2019-04-03T17:47:54.166Z,18.34
2019-04-03T17:51:58.750Z,18.30
2019-04-03T17:56:03.195Z,18.26
2019-04-03T18:00:10.134Z,18.23
2019-04-03T18:04:14.375Z,18.17
2019-04-03T18:08:18.679Z,18.11
2019-04-03T18:12:22.891Z,18.06
2019-04-03T18:16:29.510Z,18.08
2019-04-03T18:20:33.117Z,18.06
2019-04-03T18:24:37.418Z,18.01
2019-04-03T18:28:41.648Z,17.94
2019-04-03T18:32:46.647Z,17.93
2019-04-03T18:36:51.203Z,17.79
2019-04-03T18:40:55.581Z,17.66
2019-04-03T18:44:59.802Z,17.58
2019-04-03T18:49:04.052Z,17.49
2019-04-03T18:53:09.751Z,17.41
2019-04-03T18:57:16.812Z,17.31
2019-04-03T19:01:20.261Z,17.24
2019-04-03T19:05:24.667Z,17.20
2019-04-03T19:09:28.913Z,17.13
2019-04-03T19:13:33.213Z,17.00
2019-04-03T19:17:37.408Z,16.90
2019-04-03T19:21:42.087Z,16.85
2019-04-03T19:25:46.852Z,16.80
2019-04-03T19:29:51.052Z,16.75
2019-04-03T19:33:55.287Z,16.69
2019-04-03T19:37:59.763Z,16.61
2019-04-03T19:42:04.157Z,16.53
2019-04-03T19:46:08.383Z,16.48
2019-04-03T19:50:12.812Z,16.44
2019-04-03T19:54:17.255Z,16.39
2019-04-03T19:58:21.501Z,16.32
2019-04-03T20:02:25.751Z,16.25
2019-04-03T20:06:29.950Z,16.19
2019-04-03T20:10:34.449Z,16.13
2019-04-03T20:14:38.647Z,16.05
2019-04-03T20:18:43.015Z,15.96
2019-04-03T20:22:47.264Z,15.82
2019-04-03T20:26:51.489Z,15.69
2019-04-03T20:30:55.726Z,15.65
2019-04-03T20:34:59.947Z,15.62
2019-04-03T20:39:05.971Z,15.54
2019-04-03T20:43:11.862Z,15.46
2019-04-03T20:47:16.220Z,15.37
2019-04-03T20:51:20.590Z,15.32
2019-04-03T20:55:25.562Z,15.24
2019-04-03T20:59:30.199Z,15.16
2019-04-03T21:03:34.710Z,15.10
2019-04-03T21:07:38.969Z,14.99
2019-04-03T21:11:43.135Z,14.94
2019-04-03T21:15:47.478Z,14.90
2019-04-03T21:19:52.330Z,14.81
2019-04-03T21:23:56.928Z,14.77
2019-04-03T21:28:01.161Z,14.72
2019-04-03T21:32:05.350Z,14.69
2019-04-03T21:36:09.588Z,14.64
2019-04-03T21:40:15.188Z,14.61
2019-04-03T21:44:19.885Z,14.56
2019-04-03T21:48:24.110Z,14.49
2019-04-03T21:52:28.343Z,14.48
2019-04-03T21:56:33.417Z,14.43
2019-04-03T22:01:16.127Z,14.35
2019-04-03T22:05:20.329Z,14.28
2019-04-03T22:09:24.663Z,14.24
2019-04-03T22:13:29.024Z,14.22
2019-04-03T22:17:34.233Z,14.17
2019-04-03T22:21:38.765Z,14.12
2019-04-03T22:25:43.006Z,14.07
2019-04-03T22:29:47.218Z,14.01
2019-04-03T22:33:51.489Z,13.99
2019-04-03T22:37:55.719Z,13.92
2019-04-03T22:41:59.936Z,13.87
2019-04-03T22:46:04.196Z,13.83
2019-04-03T22:50:08.922Z,13.81
2019-04-03T22:54:13.320Z,13.77
2019-04-03T22:58:19.025Z,13.72
2019-04-03T23:02:23.708Z,13.70
2019-04-03T23:06:27.983Z,13.67
2019-04-03T23:10:36.111Z,13.64
2019-04-03T23:14:40.380Z,13.61
2019-04-03T23:18:46.600Z,13.59
2019-04-03T23:22:51.068Z,13.56
2019-04-03T23:26:55.361Z,13.52
2019-04-03T23:30:59.580Z,13.49
2019-04-03T23:35:03.851Z,13.46
2019-04-03T23:39:09.547Z,13.40
2019-04-03T23:43:13.840Z,13.38
2019-04-03T23:47:18.137Z,13.33
2019-04-03T23:51:23.479Z,13.32
2019-04-03T23:55:28.425Z,13.28
2019-04-03T23:59:32.702Z,13.21
